createdAt,value
2023-03-23T15:58:44.138Z,19.40
2023-03-23T16:01:49.230Z,19.27
2023-03-23T16:04:53.086Z,19.14
2023-03-23T16:07:56.562Z,19.10
2023-03-23T16:11:00.277Z,19.11
2023-03-23T16:14:03.809Z,19.17
2023-03-23T16:17:07.339Z,19.16
2023-03-23T16:20:20.572Z,18.92
2023-03-23T16:23:24.294Z,18.69
2023-03-23T16:26:27.462Z,18.66
2023-03-23T16:29:54.364Z,18.68
2023-03-23T16:32:57.062Z,18.61
2023-03-23T16:36:01.042Z,18.47
2023-03-23T16:39:04.325Z,18.32
2023-03-23T16:42:07.958Z,18.24
2023-03-23T16:45:12.083Z,18.12
2023-03-23T16:48:17.065Z,18.02
2023-03-23T16:51:20.360Z,17.88
2023-03-23T16:54:31.177Z,17.76
2023-03-23T16:57:37.551Z,17.67
2023-03-23T17:00:52.944Z,17.57
2023-03-23T17:03:57.707Z,17.46
2023-03-23T17:07:01.170Z,17.34
2023-03-23T17:10:06.185Z,17.21
2023-03-23T17:13:09.821Z,17.07
2023-03-23T17:16:13.194Z,16.88
2023-03-23T17:19:16.879Z,16.79
2023-03-23T17:22:20.249Z,16.59
2023-03-23T17:25:23.396Z,16.48
2023-03-23T17:28:26.740Z,16.21
2023-03-23T17:31:30.314Z,16.02
2023-03-23T17:34:33.445Z,16.03
2023-03-23T17:37:57.661Z,15.96
2023-03-23T17:41:08.265Z,15.62
2023-03-23T17:44:11.508Z,15.44
2023-03-23T17:47:14.681Z,15.45
2023-03-23T17:50:17.662Z,15.31
2023-03-23T17:53:21.324Z,15.14
2023-03-23T17:56:25.071Z,15.13
2023-03-23T17:59:29.429Z,15.03
2023-03-23T18:02:32.575Z,14.93
2023-03-23T18:05:38.360Z,14.81
2023-03-23T18:08:41.866Z,14.72
2023-03-23T18:11:46.183Z,14.54
2023-03-23T18:14:49.628Z,14.45
2023-03-23T18:17:52.790Z,14.35
2023-03-23T18:20:57.992Z,14.24
2023-03-23T18:24:10.933Z,14.22
2023-03-23T18:27:17.528Z,14.12
2023-03-23T18:31:03.808Z,14.09
2023-03-23T18:34:42.031Z,14.03
2023-03-23T18:37:45.497Z,13.90
2023-03-23T18:40:57.856Z,13.90
2023-03-23T18:44:10.179Z,13.80
2023-03-23T18:47:30.694Z,13.74
2023-03-23T18:50:34.370Z,13.74
2023-03-23T18:54:49.566Z,13.58
2023-03-23T18:58:15.811Z,13.46
2023-03-23T19:01:52.672Z,13.30
2023-03-23T19:05:11.368Z,13.24
2023-03-23T19:08:20.920Z,13.15
2023-03-23T19:11:28.007Z,13.07
2023-03-23T19:14:31.542Z,13.14
2023-03-23T19:17:36.568Z,13.09
2023-03-23T19:21:18.008Z,13.14
2023-03-23T19:24:23.087Z,13.11
2023-03-23T19:27:26.483Z,13.06
2023-03-23T19:30:35.830Z,13.04
2023-03-23T19:33:52.309Z,13.00
2023-03-23T19:37:04.130Z,12.90
2023-03-23T19:40:42.898Z,13.00
2023-03-23T19:43:49.276Z,12.73
2023-03-23T19:47:25.981Z,12.87
2023-03-23T19:50:29.268Z,12.64
2023-03-23T19:54:25.252Z,12.35
2023-03-23T19:58:10.957Z,12.37
2023-03-23T20:01:18.399Z,12.32
2023-03-23T20:04:52.581Z,12.27
2023-03-23T20:13:13.067Z,12.24
2023-03-23T20:17:11.707Z,12.27
2023-03-23T20:20:28.058Z,12.12
2023-03-23T20:24:09.381Z,12.21
2023-03-23T20:28:27.256Z,12.18
2023-03-23T20:31:36.811Z,12.03
2023-03-23T20:34:49.462Z,11.98
2023-03-23T20:37:56.101Z,12.07
2023-03-23T20:41:45.465Z,11.93
2023-03-23T20:45:47.440Z,11.95
2023-03-23T20:49:16.138Z,11.91
2023-03-23T20:53:07.417Z,11.88
2023-03-23T21:00:35.925Z,11.73
2023-03-23T21:04:20.503Z,11.71
2023-03-23T21:08:02.945Z,11.65
2023-03-23T21:11:22.603Z,11.60
2023-03-23T21:15:30.690Z,11.45
2023-03-23T21:18:58.611Z,11.41
2023-03-23T21:22:21.809Z,11.42
2023-03-23T21:26:35.182Z,11.43
2023-03-23T21:30:03.328Z,11.26
2023-03-23T21:33:37.605Z,11.03
2023-03-23T21:36:59.187Z,10.96
2023-03-23T21:52:35.747Z,11.00
2023-03-23T21:56:28.389Z,10.94
2023-03-23T21:59:32.066Z,11.00
2023-03-23T22:02:47.847Z,10.90
2023-03-23T22:11:06.494Z,10.83
2023-03-23T22:14:47.528Z,10.84
2023-03-23T22:18:36.921Z,10.76
2023-03-23T22:25:47.680Z,10.44
2023-03-23T22:33:10.425Z,10.40
2023-03-23T22:37:02.974Z,10.33
2023-03-23T22:41:01.675Z,10.17
2023-03-23T22:44:08.040Z,10.01
2023-03-23T22:48:01.333Z,9.96
2023-03-23T22:56:05.061Z,10.06
2023-03-23T23:04:20.312Z,10.05
2023-03-23T23:07:41.225Z,10.00
2023-03-23T23:14:52.647Z,9.96
2023-03-23T23:17:58.500Z,9.89
2023-03-23T23:21:07.103Z,9.97
2023-03-23T23:24:38.478Z,10.06
2023-03-23T23:27:56.573Z,10.07
2023-03-23T23:31:40.945Z,10.12
2023-03-23T23:35:50.985Z,10.14
2023-03-23T23:39:09.747Z,10.02
2023-03-23T23:43:00.948Z,9.99
2023-03-23T23:46:04.327Z,9.88
2023-03-23T23:50:15.853Z,9.80
2023-03-23T23:53:37.319Z,9.77
2023-03-23T23:57:00.407Z,9.71
